CheckWX is a tool to help pilots better visualize weather data.  It is not intended as a substitute for an official pre-flight weather briefing.

06:27:07 UTC

KMLU METAR
Monroe Regional Airport
Monroe, Louisiana, USA
Current

34 mins ago

KMLU 230553Z AUTO 00000KT 10SM CLR 17/14 A3008 RMK AO2 SLP185 T01720144 10244 20167 402670111 58002
Observed
Apr-23 @ 05:53 UTC
Visibility
10 SM
Flight Rules
VFR
Cloud Levels
  • Clear skies
Temperature
17°C / 63°F
Dewpoint
14°C / 57°F
Humidity
83%
Altimeter
30.08" Hg
Pressure
1018.62 hPa
Previous

2 hours ago

KMLU 230453Z AUTO 00000KT 10SM CLR 18/14 A3009 RMK AO2 SLP189 T01780139
Observed
Apr-23 @ 04:53 UTC
Visibility
10 SM
Flight Rules
VFR
Cloud Levels
  • Clear skies
Temperature
18°C / 64°F
Dewpoint
14°C / 57°F
Humidity
78%
Altimeter
30.09" Hg
Pressure
1018.92 hPa
Previous

3 hours ago

KMLU 230353Z AUTO 00000KT 10SM CLR 18/13 A3010 RMK AO2 SLP191 T01830133
Observed
Apr-23 @ 03:53 UTC
Visibility
10 SM
Flight Rules
VFR
Cloud Levels
  • Clear skies
Temperature
18°C / 64°F
Dewpoint
13°C / 55°F
Humidity
73%
Altimeter
30.1" Hg
Pressure
1019.32 hPa